createdAt,value
2022-09-15T00:02:25.448Z,65.97
2022-09-15T00:04:52.136Z,64.97
2022-09-15T00:07:19.418Z,69.45
2022-09-15T00:09:46.002Z,65.45
2022-09-15T00:12:12.900Z,65.88
2022-09-15T00:14:39.509Z,63.97
2022-09-15T00:17:06.263Z,67.55
2022-09-15T00:19:32.931Z,63.80
2022-09-15T00:21:59.771Z,66.47
2022-09-15T00:24:26.378Z,67.65
2022-09-15T00:26:53.030Z,67.65
2022-09-15T00:29:19.643Z,67.53
2022-09-15T00:31:46.373Z,67.28
2022-09-15T00:34:13.938Z,61.92
2022-09-15T00:36:40.777Z,61.65
2022-09-15T00:39:07.414Z,55.22
2022-09-15T00:41:34.199Z,55.78
2022-09-15T00:44:04.444Z,53.17
2022-09-15T00:46:36.554Z,54.67
2022-09-15T00:49:15.875Z,55.47
2022-09-15T00:51:50.261Z,52.45
2022-09-15T00:54:28.868Z,51.45
2022-09-15T00:56:58.142Z,51.10
2022-09-15T00:59:28.248Z,56.88
2022-09-15T01:02:08.318Z,51.13
2022-09-15T01:04:35.111Z,68.95
2022-09-15T01:07:04.983Z,73.75
2022-09-15T01:09:45.135Z,61.20
2022-09-15T01:12:11.960Z,57.53
2022-09-15T01:14:38.752Z,56.92
2022-09-15T01:17:30.003Z,54.88
2022-09-15T01:20:15.923Z,56.30
2022-09-15T01:23:00.657Z,56.72
2022-09-15T01:25:49.106Z,57.75
2022-09-15T01:28:39.958Z,58.67
2022-09-15T01:31:26.795Z,54.78
2022-09-15T01:33:53.402Z,57.97
2022-09-15T01:36:23.110Z,57.10
2022-09-15T01:39:05.467Z,56.97
2022-09-15T01:41:48.984Z,60.38
2022-09-15T01:44:21.202Z,59.83
2022-09-15T01:46:52.161Z,56.80
2022-09-15T01:49:25.705Z,60.63
2022-09-15T01:51:54.304Z,59.65
2022-09-15T01:54:27.964Z,56.95
2022-09-15T01:56:54.710Z,61.75
2022-09-15T01:59:21.468Z,56.25
2022-09-15T02:02:04.673Z,54.55
2022-09-15T02:04:39.921Z,52.78
2022-09-15T02:07:26.360Z,53.42
2022-09-15T02:10:11.341Z,56.03
2022-09-15T02:12:52.434Z,56.47
2022-09-15T02:15:27.187Z,58.58
2022-09-15T02:17:55.242Z,57.00
2022-09-15T02:20:50.938Z,55.83
2022-09-15T02:23:26.099Z,58.90
2022-09-15T02:28:29.116Z,56.83
2022-09-15T02:30:58.583Z,56.60
2022-09-15T02:33:29.709Z,57.60
2022-09-15T02:35:56.398Z,57.38
2022-09-15T02:38:23.562Z,55.15
2022-09-15T02:40:50.512Z,56.03
2022-09-15T02:43:18.976Z,59.30
2022-09-15T02:45:45.791Z,59.97
2022-09-15T02:48:12.946Z,60.67
2022-09-15T02:50:39.884Z,58.17
2022-09-15T02:53:06.914Z,59.13
2022-09-15T02:55:33.824Z,57.33
2022-09-15T02:58:00.764Z,57.80
2022-09-15T03:00:28.223Z,60.53
2022-09-15T03:02:55.928Z,66.80
2022-09-15T03:05:27.767Z,61.72
2022-09-15T03:07:55.429Z,68.00
2022-09-15T03:10:23.837Z,61.55
2022-09-15T03:12:52.429Z,66.60
2022-09-15T03:15:22.176Z,65.75
2022-09-15T03:17:49.866Z,66.28
2022-09-15T03:20:24.193Z,63.45
2022-09-15T03:22:50.982Z,65.70
2022-09-15T03:25:18.489Z,64.57
2022-09-15T03:27:45.502Z,61.13
2022-09-15T03:30:15.670Z,60.28
2022-09-15T03:32:42.314Z,58.38
2022-09-15T03:35:09.708Z,58.65
2022-09-15T03:37:36.354Z,57.20
2022-09-15T03:40:04.253Z,52.42
2022-09-15T03:42:30.952Z,49.58
2022-09-15T03:44:57.568Z,50.83
2022-09-15T03:47:24.319Z,50.70
2022-09-15T03:49:51.302Z,50.08
2022-09-15T03:52:17.920Z,45.50
2022-09-15T03:54:44.787Z,45.60
2022-09-15T03:57:11.436Z,45.15
2022-09-15T03:59:38.148Z,46.58
2022-09-15T04:02:05.245Z,44.50
2022-09-15T04:04:31.990Z,45.33
2022-09-15T04:06:58.622Z,45.03
2022-09-15T04:09:25.633Z,45.40
2022-09-15T04:11:52.245Z,47.42
2022-09-15T04:14:19.489Z,48.80
2022-09-15T04:16:46.117Z,50.33
2022-09-15T04:19:12.860Z,47.05
2022-09-15T04:21:39.530Z,44.38
2022-09-15T04:24:06.354Z,45.72
2022-09-15T04:26:35.560Z,46.35
2022-09-15T04:29:05.021Z,42.80
2022-09-15T04:31:33.251Z,45.42
2022-09-15T04:34:00.247Z,45.88
2022-09-15T04:36:28.607Z,48.92
2022-09-15T04:38:56.911Z,49.42
2022-09-15T04:41:24.363Z,52.38
2022-09-15T04:43:51.532Z,52.75
2022-09-15T04:46:18.764Z,54.38
2022-09-15T04:48:46.023Z,53.10
2022-09-15T04:51:15.765Z,52.17
2022-09-15T04:53:42.801Z,55.05
2022-09-15T04:56:15.331Z,54.45
2022-09-15T04:58:48.126Z,56.20
2022-09-15T05:01:21.963Z,57.35
2022-09-15T05:03:49.598Z,54.72
2022-09-15T05:06:21.883Z,56.45
2022-09-15T05:08:53.476Z,56.35
2022-09-15T05:11:20.633Z,57.67
2022-09-15T05:13:48.220Z,58.28
2022-09-15T05:16:20.378Z,58.53
2022-09-15T05:18:48.865Z,61.58
2022-09-15T05:21:17.483Z,62.58
2022-09-15T05:23:44.344Z,62.08
2022-09-15T05:26:22.570Z,59.17
2022-09-15T05:28:50.079Z,53.33
2022-09-15T05:31:25.501Z,57.28
2022-09-15T05:33:52.914Z,55.83
2022-09-15T05:36:21.120Z,53.90
2022-09-15T05:38:47.766Z,54.13
2022-09-15T05:41:16.842Z,54.08
2022-09-15T05:43:45.035Z,47.53
2022-09-15T05:46:12.648Z,46.13
2022-09-15T05:48:39.380Z,46.70
2022-09-15T05:51:06.317Z,47.03
2022-09-15T05:53:36.413Z,47.22
2022-09-15T05:56:09.959Z,46.92
2022-09-15T05:58:39.084Z,46.60
2022-09-15T06:01:12.351Z,46.85
2022-09-15T06:03:39.094Z,39.65
2022-09-15T06:06:06.482Z,41.22
2022-09-15T06:08:58.128Z,42.22
2022-09-15T06:11:35.373Z,40.42
2022-09-15T06:14:03.579Z,39.80
2022-09-15T06:16:32.999Z,43.50
2022-09-15T06:19:01.174Z,42.42
2022-09-15T06:21:29.800Z,41.67
2022-09-15T06:23:58.784Z,43.17
2022-09-15T06:26:26.610Z,44.50
2022-09-15T06:28:58.634Z,41.85
2022-09-15T06:31:27.042Z,40.53
2022-09-15T06:33:55.948Z,41.20
2022-09-15T06:36:25.912Z,41.17
2022-09-15T06:38:53.585Z,41.22
2022-09-15T06:41:20.870Z,39.47
2022-09-15T06:43:49.077Z,42.05
2022-09-15T06:46:21.355Z,41.28
2022-09-15T06:48:48.837Z,42.40
2022-09-15T06:51:17.380Z,43.88
2022-09-15T06:53:44.406Z,40.38
2022-09-15T06:56:14.431Z,42.17
2022-09-15T06:58:43.199Z,43.65
2022-09-15T07:01:19.173Z,41.83
2022-09-15T07:03:45.962Z,39.63
2022-09-15T07:06:12.696Z,42.55
2022-09-15T07:08:40.423Z,43.10
2022-09-15T07:11:08.363Z,43.13
2022-09-15T07:13:35.357Z,38.95
2022-09-15T07:16:04.030Z,38.92
2022-09-15T07:18:31.267Z,38.92
2022-09-15T07:21:10.476Z,40.72
2022-09-15T07:23:37.493Z,39.88
2022-09-15T07:26:13.026Z,40.65
2022-09-15T07:28:42.201Z,40.55
2022-09-15T07:31:10.691Z,38.45
2022-09-15T07:33:37.804Z,38.08
2022-09-15T07:36:06.699Z,38.67
2022-09-15T07:38:34.900Z,37.25
2022-09-15T07:41:10.860Z,38.13
2022-09-15T07:43:38.280Z,35.58
2022-09-15T07:46:06.072Z,38.65
2022-09-15T07:48:33.102Z,36.20
2022-09-15T07:50:59.908Z,34.60
2022-09-15T07:53:30.218Z,30.60
2022-09-15T07:55:56.883Z,31.27
2022-09-15T07:58:24.876Z,30.70
2022-09-15T08:00:52.069Z,31.83
2022-09-15T08:03:18.830Z,31.15
2022-09-15T08:05:46.166Z,31.77
2022-09-15T08:08:13.209Z,29.20
2022-09-15T08:10:40.980Z,29.83
2022-09-15T08:13:08.068Z,27.98
2022-09-15T08:15:38.578Z,29.60
2022-09-15T08:18:06.169Z,25.90
2022-09-15T08:20:33.527Z,27.58
2022-09-15T08:23:00.238Z,27.70
2022-09-15T08:25:26.865Z,24.70
2022-09-15T08:27:54.455Z,25.27
2022-09-15T08:30:22.014Z,25.50
2022-09-15T08:32:49.387Z,24.55
2022-09-15T08:35:17.264Z,22.98
2022-09-15T08:37:43.931Z,23.25
2022-09-15T08:40:17.799Z,22.95
2022-09-15T08:42:48.104Z,23.65
2022-09-15T08:45:41.830Z,23.42
2022-09-15T08:48:15.545Z,21.35
2022-09-15T08:50:47.418Z,21.52
2022-09-15T08:53:18.265Z,22.05
2022-09-15T08:55:55.009Z,21.25
2022-09-15T08:58:23.544Z,23.27
2022-09-15T09:00:54.678Z,24.02
2022-09-15T09:03:45.226Z,22.27
2022-09-15T09:06:32.908Z,23.67
2022-09-15T09:09:21.690Z,23.27
2022-09-15T09:12:15.437Z,22.00
2022-09-15T09:14:58.164Z,18.05
2022-09-15T09:17:52.294Z,19.75
2022-09-15T09:20:44.620Z,20.80
2022-09-15T09:23:15.125Z,19.30
2022-09-15T09:25:42.929Z,20.48
2022-09-15T09:28:35.403Z,20.42
2022-09-15T09:31:08.306Z,20.92
2022-09-15T09:34:07.765Z,19.30
2022-09-15T09:36:34.544Z,20.10
2022-09-15T09:39:03.139Z,20.63
2022-09-15T09:41:36.318Z,21.05
2022-09-15T09:44:05.645Z,20.90
2022-09-15T09:46:32.909Z,20.02
2022-09-15T09:49:10.809Z,21.35
2022-09-15T09:51:39.163Z,21.10
2022-09-15T09:54:09.739Z,21.88
2022-09-15T09:56:36.455Z,22.73
2022-09-15T09:59:03.615Z,23.30
2022-09-15T10:01:30.504Z,22.33
2022-09-15T10:04:19.098Z,21.60
2022-09-15T10:06:46.337Z,21.40
2022-09-15T10:09:18.744Z,20.73
2022-09-15T10:11:52.358Z,19.67
2022-09-15T10:14:20.351Z,21.58
2022-09-15T10:17:00.622Z,20.35
2022-09-15T10:19:29.704Z,19.73
2022-09-15T10:21:58.225Z,20.88
2022-09-15T10:24:31.311Z,21.40
2022-09-15T10:27:20.394Z,20.80
2022-09-15T10:29:47.578Z,21.35
2022-09-15T10:32:25.463Z,22.23
2022-09-15T10:35:13.090Z,19.95
2022-09-15T10:38:11.439Z,20.67
2022-09-15T10:40:44.288Z,20.55
2022-09-15T10:43:32.019Z,20.92
2022-09-15T10:46:12.934Z,20.63
2022-09-15T10:49:04.464Z,20.27
2022-09-15T10:51:47.158Z,21.08
2022-09-15T10:54:39.102Z,20.30
2022-09-15T10:57:36.330Z,20.05
2022-09-15T11:00:27.411Z,20.48
2022-09-15T11:03:03.308Z,21.00
2022-09-15T11:06:07.186Z,19.58
2022-09-15T11:09:10.171Z,19.55
2022-09-15T11:11:55.331Z,20.05
2022-09-15T11:14:51.557Z,19.83
2022-09-15T11:17:36.000Z,20.55
2022-09-15T11:20:14.237Z,19.90
2022-09-15T11:22:52.683Z,19.85
2022-09-15T11:25:33.254Z,20.30
2022-09-15T11:28:17.632Z,19.58
2022-09-15T11:30:58.366Z,19.17
2022-09-15T11:33:53.734Z,19.58
2022-09-15T11:36:28.179Z,18.92
2022-09-15T11:39:03.268Z,19.50
2022-09-15T11:44:30.791Z,18.67
2022-09-15T11:47:22.248Z,18.73
2022-09-15T11:50:17.885Z,19.23
2022-09-15T11:53:22.233Z,18.88
2022-09-15T11:55:59.034Z,18.90
2022-09-15T11:58:34.739Z,18.98
2022-09-15T12:01:08.849Z,18.48
2022-09-15T12:04:02.714Z,19.50
2022-09-15T12:06:45.760Z,20.05
2022-09-15T12:09:16.533Z,19.50
2022-09-15T12:12:15.070Z,19.58
2022-09-15T12:14:44.778Z,19.90
2022-09-15T12:17:31.490Z,19.13
2022-09-15T12:20:13.098Z,19.20
2022-09-15T12:23:02.036Z,19.20
2022-09-15T12:25:41.018Z,18.50
2022-09-15T12:28:22.780Z,19.92
2022-09-15T12:31:10.719Z,19.05
2022-09-15T12:33:43.573Z,18.27
2022-09-15T12:36:48.428Z,20.05
2022-09-15T12:39:24.202Z,19.48
2022-09-15T12:41:55.158Z,19.27
2022-09-15T12:44:30.009Z,19.63
2022-09-15T12:46:58.790Z,18.92
2022-09-15T12:49:32.859Z,19.10
2022-09-15T12:52:03.301Z,18.83
2022-09-15T12:54:32.967Z,19.30
2022-09-15T12:57:00.279Z,19.30
2022-09-15T12:59:28.340Z,19.30
2022-09-15T13:01:56.253Z,20.10
2022-09-15T13:04:41.289Z,19.88
2022-09-15T13:07:19.942Z,19.30
2022-09-15T13:09:57.043Z,20.20
2022-09-15T13:12:29.688Z,19.38
2022-09-15T13:15:00.946Z,19.58
2022-09-15T13:17:29.397Z,19.00
2022-09-15T13:20:07.308Z,19.55
2022-09-15T13:22:43.837Z,19.27
2022-09-15T13:25:10.707Z,18.77
2022-09-15T13:27:40.904Z,18.60
2022-09-15T13:30:25.786Z,18.85
2022-09-15T13:33:23.944Z,18.40
2022-09-15T13:38:04.111Z,18.38
2022-09-15T13:39:46.757Z,18.67
2022-09-15T13:42:24.146Z,18.10
2022-09-15T13:44:57.405Z,18.02
2022-09-15T13:47:33.615Z,18.25
2022-09-15T13:50:32.554Z,18.42
2022-09-15T13:53:14.584Z,18.27
2022-09-15T13:55:43.816Z,18.85
2022-09-15T14:01:04.728Z,18.40
2022-09-15T14:03:46.465Z,17.40
2022-09-15T14:06:35.197Z,17.77
2022-09-15T14:09:13.595Z,18.17
2022-09-15T14:11:41.250Z,18.48
2022-09-15T14:14:38.403Z,18.00
2022-09-15T14:17:05.426Z,17.55
2022-09-15T14:19:39.580Z,18.20
2022-09-15T14:22:21.768Z,18.07
2022-09-15T14:24:50.620Z,17.55
2022-09-15T14:27:29.471Z,18.35
2022-09-15T14:29:58.202Z,18.17
2022-09-15T14:32:27.812Z,17.83
2022-09-15T14:35:03.424Z,18.02
2022-09-15T14:37:34.498Z,17.98
2022-09-15T14:40:03.115Z,18.58
2022-09-15T14:42:34.992Z,18.40
2022-09-15T14:50:29.039Z,18.50
2022-09-15T14:53:06.908Z,17.70
2022-09-15T14:58:11.405Z,17.67
2022-09-15T15:00:54.490Z,17.15
2022-09-15T15:03:39.224Z,17.67
2022-09-15T15:06:35.358Z,17.48
2022-09-15T15:09:12.534Z,17.65
2022-09-15T15:11:39.969Z,17.67
2022-09-15T15:14:09.652Z,18.38
2022-09-15T15:16:36.637Z,18.40
2022-09-15T15:19:03.566Z,17.75
2022-09-15T15:21:44.265Z,18.83
2022-09-15T15:24:13.938Z,18.13
2022-09-15T15:26:51.068Z,17.83
2022-09-15T15:29:42.449Z,17.85
2022-09-15T15:32:22.218Z,17.77
2022-09-15T15:34:59.402Z,17.52
2022-09-15T15:37:28.978Z,17.83
2022-09-15T15:40:06.808Z,18.75
2022-09-15T15:42:34.521Z,18.30
2022-09-15T15:45:27.041Z,18.05
2022-09-15T15:47:54.096Z,18.25
2022-09-15T15:50:28.191Z,17.50
2022-09-15T15:52:55.075Z,19.23
2022-09-15T15:55:23.720Z,20.35
2022-09-15T15:57:52.686Z,21.30
2022-09-15T16:00:25.655Z,19.25
2022-09-15T16:02:53.105Z,19.70
2022-09-15T16:05:21.975Z,18.52
2022-09-15T16:07:50.919Z,19.10
2022-09-15T16:10:21.536Z,18.45
2022-09-15T16:12:48.354Z,18.73
2022-09-15T16:15:20.769Z,18.65
2022-09-15T16:17:48.000Z,18.17
2022-09-15T16:20:15.987Z,17.70
2022-09-15T16:22:43.412Z,18.27
2022-09-15T16:25:20.998Z,17.35
2022-09-15T16:27:47.680Z,17.90
2022-09-15T16:30:14.517Z,17.13
2022-09-15T16:32:41.259Z,16.30
2022-09-15T16:35:44.071Z,15.55
2022-09-15T16:38:11.307Z,15.02
2022-09-15T16:40:38.210Z,13.85
2022-09-15T16:43:08.994Z,14.63
2022-09-15T16:45:40.551Z,13.77
2022-09-15T16:48:09.384Z,12.95
2022-09-15T16:50:37.838Z,12.75
2022-09-15T16:53:09.086Z,13.57
2022-09-15T16:55:38.017Z,12.35
2022-09-15T16:58:05.816Z,11.43
2022-09-15T17:00:36.979Z,12.05
2022-09-15T17:03:06.128Z,11.35
2022-09-15T17:05:39.379Z,10.88
2022-09-15T17:08:08.298Z,11.68
2022-09-15T17:10:35.449Z,11.60
2022-09-15T17:13:02.864Z,11.05
2022-09-15T17:15:38.293Z,11.65
2022-09-15T17:18:06.940Z,11.15
2022-09-15T17:20:39.124Z,11.60
2022-09-15T17:23:27.703Z,11.43
2022-09-15T17:25:58.342Z,11.20
2022-09-15T17:28:27.544Z,11.60
2022-09-15T17:30:58.435Z,10.65
2022-09-15T17:33:25.811Z,11.80
2022-09-15T17:35:53.183Z,11.18
2022-09-15T17:38:21.584Z,10.77
2022-09-15T17:40:49.706Z,11.18
2022-09-15T17:43:22.583Z,10.23
2022-09-15T17:45:50.175Z,11.48
2022-09-15T17:48:17.259Z,11.02
2022-09-15T17:50:45.183Z,11.00
2022-09-15T17:53:16.967Z,11.13
2022-09-15T17:55:44.128Z,11.35
2022-09-15T17:58:11.409Z,11.45
2022-09-15T18:00:40.222Z,11.73
2022-09-15T18:03:29.860Z,12.68
2022-09-15T18:05:59.028Z,12.15
2022-09-15T18:08:26.775Z,12.15
2022-09-15T18:10:53.562Z,12.57
2022-09-15T18:13:23.308Z,12.32
2022-09-15T18:15:50.505Z,11.98
2022-09-15T18:18:23.758Z,12.63
2022-09-15T18:20:52.841Z,11.38
2022-09-15T18:23:25.445Z,11.77
2022-09-15T18:25:52.778Z,10.98
2022-09-15T18:28:20.034Z,11.00
2022-09-15T18:30:49.375Z,10.65
2022-09-15T18:33:21.521Z,11.55
2022-09-15T18:35:50.333Z,11.02
2022-09-15T18:38:17.337Z,11.70
2022-09-15T18:40:49.784Z,11.35
2022-09-15T18:43:17.324Z,12.18
2022-09-15T18:45:46.413Z,11.00
2022-09-15T18:48:13.376Z,11.77
2022-09-15T18:50:41.346Z,10.65
2022-09-15T18:53:08.876Z,11.45
2022-09-15T18:55:35.720Z,11.52
2022-09-15T18:58:02.573Z,11.00
2022-09-15T19:00:29.754Z,11.00
2022-09-15T19:03:00.686Z,11.30
2022-09-15T19:05:28.626Z,11.63
2022-09-15T19:07:55.383Z,11.98
2022-09-15T19:10:23.013Z,11.40
2022-09-15T19:12:49.872Z,11.85
2022-09-15T19:15:16.967Z,12.80
2022-09-15T19:17:44.145Z,14.75
2022-09-15T19:20:13.501Z,12.60
2022-09-15T19:22:40.791Z,13.30
2022-09-15T19:25:09.624Z,13.93
2022-09-15T19:27:37.611Z,13.20
2022-09-15T19:30:05.466Z,13.85
2022-09-15T19:32:32.821Z,13.75
2022-09-15T19:34:59.774Z,13.32
2022-09-15T19:37:26.666Z,13.68
2022-09-15T19:39:54.586Z,13.93
2022-09-15T19:42:21.254Z,13.48
2022-09-15T19:44:49.455Z,14.48
2022-09-15T19:47:16.392Z,13.43
2022-09-15T19:49:43.061Z,12.57
2022-09-15T19:52:09.860Z,12.95
2022-09-15T19:54:36.577Z,13.30
2022-09-15T19:57:03.794Z,13.20
2022-09-15T19:59:31.889Z,13.88
2022-09-15T20:02:00.020Z,14.15
2022-09-15T20:04:27.937Z,14.07
2022-09-15T20:06:55.369Z,14.00
2022-09-15T20:09:22.380Z,14.60
2022-09-15T20:11:49.228Z,14.23
2022-09-15T20:14:16.005Z,14.93
2022-09-15T20:16:43.039Z,16.15
2022-09-15T20:19:09.841Z,14.43
2022-09-15T20:21:49.808Z,15.18
2022-09-15T20:24:18.970Z,15.60
2022-09-15T20:26:45.683Z,14.80
2022-09-15T20:29:12.444Z,15.90
2022-09-15T20:31:39.217Z,14.50
2022-09-15T20:34:05.907Z,14.82
2022-09-15T20:36:35.955Z,14.80
2022-09-15T20:39:05.856Z,15.50
2022-09-15T20:41:32.641Z,15.15
2022-09-15T20:44:00.137Z,14.95
2022-09-15T20:46:28.763Z,14.93
2022-09-15T20:48:55.499Z,14.40
2022-09-15T20:51:24.259Z,14.15
2022-09-15T20:53:53.843Z,13.82
2022-09-15T20:56:24.755Z,13.80
2022-09-15T20:58:53.154Z,14.35
2022-09-15T21:01:47.815Z,13.57
2022-09-15T21:04:15.265Z,13.00
2022-09-15T21:06:41.944Z,12.98
2022-09-15T21:09:09.104Z,13.30
2022-09-15T21:11:35.884Z,13.00
2022-09-15T21:14:03.157Z,12.60
2022-09-15T21:16:30.107Z,13.25
2022-09-15T21:18:58.389Z,12.98
2022-09-15T21:21:29.646Z,13.20
2022-09-15T21:24:00.102Z,13.80
2022-09-15T21:26:28.645Z,13.05
2022-09-15T21:28:57.082Z,12.95
2022-09-15T21:31:29.346Z,12.65
2022-09-15T21:33:57.458Z,12.93
2022-09-15T21:36:29.659Z,12.10
2022-09-15T21:38:58.127Z,12.52
2022-09-15T21:41:28.952Z,11.73
2022-09-15T21:43:58.055Z,12.07
2022-09-15T21:46:27.643Z,11.55
2022-09-15T21:48:56.098Z,11.65
2022-09-15T21:51:25.167Z,11.55
2022-09-15T21:53:56.886Z,12.30
2022-09-15T21:56:24.874Z,11.43
2022-09-15T21:58:51.717Z,10.60
2022-09-15T22:01:20.231Z,10.32
2022-09-15T22:04:10.503Z,9.40
2022-09-15T22:06:40.378Z,9.38
2022-09-15T22:09:10.330Z,8.50
2022-09-15T22:11:37.008Z,9.07
2022-09-15T22:14:07.854Z,9.13
2022-09-15T22:16:36.309Z,9.60
2022-09-15T22:19:03.340Z,9.25
2022-09-15T22:21:32.383Z,8.70
2022-09-15T22:23:59.728Z,8.90
2022-09-15T22:26:30.096Z,8.40
2022-09-15T22:28:58.708Z,8.55
2022-09-15T22:31:26.951Z,8.30
2022-09-15T22:33:54.173Z,8.85
2022-09-15T22:36:28.959Z,7.90
2022-09-15T22:38:56.606Z,7.55
2022-09-15T22:41:25.735Z,7.22
2022-09-15T22:43:52.465Z,6.65
2022-09-15T22:46:19.675Z,7.47
2022-09-15T22:48:46.488Z,7.00
2022-09-15T22:51:14.641Z,7.53
2022-09-15T22:53:41.348Z,6.97
2022-09-15T22:56:15.166Z,6.28
2022-09-15T22:58:43.794Z,6.20
2022-09-15T23:01:17.272Z,5.97
2022-09-15T23:03:47.354Z,5.60
2022-09-15T23:06:14.426Z,5.82
2022-09-15T23:08:41.457Z,5.75
2022-09-15T23:11:14.426Z,5.38
2022-09-15T23:13:41.786Z,5.97
2022-09-15T23:16:09.102Z,5.95
2022-09-15T23:18:36.567Z,6.35
2022-09-15T23:21:09.843Z,5.60
2022-09-15T23:23:38.922Z,5.40
2022-09-15T23:26:07.612Z,5.45
2022-09-15T23:28:34.567Z,4.80
2022-09-15T23:31:01.445Z,4.10
2022-09-15T23:33:29.927Z,5.97
2022-09-15T23:35:58.950Z,4.80
2022-09-15T23:38:25.714Z,4.28
2022-09-15T23:40:52.353Z,4.57
2022-09-15T23:43:19.014Z,4.90
2022-09-15T23:45:46.215Z,4.13
2022-09-15T23:48:13.756Z,4.45
2022-09-15T23:50:40.841Z,4.40
2022-09-15T23:53:08.365Z,4.30
2022-09-15T23:55:35.375Z,4.40
2022-09-15T23:58:02.441Z,4.82
